Weather at Heli-Dyne Systems Inc Heliport

Public forecast

Using degrees Fahrenheit for public forecast. Weather courtesy of forecast.io.

Closest aviation weather report (METAR) to Heli-Dyne Systems Inc Heliport

Closest report is Grand Prairie Municipal Airport, 9.1 nm (16.8 km) SE.

2024/06/15 04:15 (retrieved 20 minutes ago)

KGPM 150415Z AUTO 13004KT 10SM CLR 28/18 A2997 RMK AO2 T02800175

Closest aviation forecast (TAF) to Heli-Dyne Systems Inc Heliport

Forecast is more than 6 hours old.

Closest forecast is Dyess Air Force Base, 137.2 nm (254.1 km) W.

2024/06/14 16:51 (retrieved 12 hours ago)

TAF TAF KDYS 141600Z 1416/1522 15012KT 9999 FEW060 QNH3000INS BECMG 1420/1421 13012G18KT 9999 SKC QNH2997INS BECMG 1509/1510 16012KT 9999 FEW200 QNH3000INS BECMG 1511/1512 17012G18KT 9999 FEW200 QNH2998INS TX35/1422Z TN22/1512Z